sensor_id;sensor_type;location;lat;lon;timestamp;P1;durP1;ratioP1;P2;durP2;ratioP2
6485;SDS011;3276;48.490;9.222;2024-03-08T00:01:35;23.58;;;14.65;;
6485;SDS011;3276;48.490;9.222;2024-03-08T00:04:00;29.60;;;15.77;;
6485;SDS011;3276;48.490;9.222;2024-03-08T00:06:26;23.90;;;16.10;;
6485;SDS011;3276;48.490;9.222;2024-03-08T00:08:51;25.30;;;15.47;;
6485;SDS011;3276;48.490;9.222;2024-03-08T00:11:17;25.10;;;15.67;;
6485;SDS011;3276;48.490;9.222;2024-03-08T00:13:43;23.93;;;16.03;;
6485;SDS011;3276;48.490;9.222;2024-03-08T00:16:09;22.98;;;15.30;;
6485;SDS011;3276;48.490;9.222;2024-03-08T00:18:35;26.13;;;14.37;;
6485;SDS011;3276;48.490;9.222;2024-03-08T00:21:01;24.05;;;13.65;;
6485;SDS011;3276;48.490;9.222;2024-03-08T00:23:27;27.90;;;17.13;;
6485;SDS011;3276;48.490;9.222;2024-03-08T00:25:53;24.48;;;14.45;;
6485;SDS011;3276;48.490;9.222;2024-03-08T00:28:19;24.38;;;15.10;;
6485;SDS011;3276;48.490;9.222;2024-03-08T00:30:45;20.40;;;13.80;;
6485;SDS011;3276;48.490;9.222;2024-03-08T00:33:11;26.42;;;17.45;;
6485;SDS011;3276;48.490;9.222;2024-03-08T00:35:37;19.17;;;14.07;;
6485;SDS011;3276;48.490;9.222;2024-03-08T00:38:03;24.07;;;15.80;;
6485;SDS011;3276;48.490;9.222;2024-03-08T00:40:29;26.27;;;16.58;;
6485;SDS011;3276;48.490;9.222;2024-03-08T00:42:54;21.67;;;15.57;;
6485;SDS011;3276;48.490;9.222;2024-03-08T00:45:20;20.40;;;14.57;;
6485;SDS011;3276;48.490;9.222;2024-03-08T00:47:45;22.47;;;14.80;;
6485;SDS011;3276;48.490;9.222;2024-03-08T00:50:11;23.07;;;16.10;;
6485;SDS011;3276;48.490;9.222;2024-03-08T00:52:37;28.55;;;18.05;;
6485;SDS011;3276;48.490;9.222;2024-03-08T00:55:03;22.27;;;15.03;;
6485;SDS011;3276;48.490;9.222;2024-03-08T00:57:29;21.10;;;13.73;;
6485;SDS011;3276;48.490;9.222;2024-03-08T00:59:55;22.20;;;14.93;;
6485;SDS011;3276;48.490;9.222;2024-03-08T01:02:21;24.13;;;14.93;;
6485;SDS011;3276;48.490;9.222;2024-03-08T01:04:48;22.00;;;14.35;;
6485;SDS011;3276;48.490;9.222;2024-03-08T01:07:13;24.60;;;13.77;;
6485;SDS011;3276;48.490;9.222;2024-03-08T01:09:39;26.30;;;15.63;;
6485;SDS011;3276;48.490;9.222;2024-03-08T01:12:05;20.47;;;15.77;;
6485;SDS011;3276;48.490;9.222;2024-03-08T01:14:32;17.67;;;12.68;;
6485;SDS011;3276;48.490;9.222;2024-03-08T01:16:58;18.15;;;14.85;;
6485;SDS011;3276;48.490;9.222;2024-03-08T01:19:24;22.10;;;14.17;;
6485;SDS011;3276;48.490;9.222;2024-03-08T01:21:49;20.93;;;14.37;;
6485;SDS011;3276;48.490;9.222;2024-03-08T01:24:15;22.27;;;14.23;;
6485;SDS011;3276;48.490;9.222;2024-03-08T01:26:41;21.67;;;14.77;;
6485;SDS011;3276;48.490;9.222;2024-03-08T01:29:07;18.13;;;11.37;;
6485;SDS011;3276;48.490;9.222;2024-03-08T01:31:33;22.17;;;13.20;;
6485;SDS011;3276;48.490;9.222;2024-03-08T01:33:59;15.03;;;12.57;;
6485;SDS011;3276;48.490;9.222;2024-03-08T01:36:24;18.60;;;13.07;;
6485;SDS011;3276;48.490;9.222;2024-03-08T01:38:50;17.33;;;13.00;;
6485;SDS011;3276;48.490;9.222;2024-03-08T01:41:16;20.13;;;12.48;;
6485;SDS011;3276;48.490;9.222;2024-03-08T01:43:42;22.58;;;13.60;;
6485;SDS011;3276;48.490;9.222;2024-03-08T01:46:08;21.40;;;13.90;;
6485;SDS011;3276;48.490;9.222;2024-03-08T01:48:36;24.85;;;14.43;;
6485;SDS011;3276;48.490;9.222;2024-03-08T01:51:01;22.20;;;14.30;;
6485;SDS011;3276;48.490;9.222;2024-03-08T01:53:28;19.93;;;14.47;;
6485;SDS011;3276;48.490;9.222;2024-03-08T01:55:56;19.23;;;13.00;;
6485;SDS011;3276;48.490;9.222;2024-03-08T01:58:22;20.38;;;13.50;;
6485;SDS011;3276;48.490;9.222;2024-03-08T02:00:49;18.45;;;12.32;;
6485;SDS011;3276;48.490;9.222;2024-03-08T02:03:17;18.97;;;12.67;;
6485;SDS011;3276;48.490;9.222;2024-03-08T02:05:43;20.10;;;14.32;;
6485;SDS011;3276;48.490;9.222;2024-03-08T02:08:09;22.27;;;14.07;;
6485;SDS011;3276;48.490;9.222;2024-03-08T02:10:39;20.90;;;13.82;;
6485;SDS011;3276;48.490;9.222;2024-03-08T02:13:06;20.92;;;13.88;;
6485;SDS011;3276;48.490;9.222;2024-03-08T02:18:21;21.63;;;13.40;;
6485;SDS011;3276;48.490;9.222;2024-03-08T02:20:49;21.45;;;15.07;;
6485;SDS011;3276;48.490;9.222;2024-03-08T02:23:17;21.08;;;14.15;;
6485;SDS011;3276;48.490;9.222;2024-03-08T02:25:43;24.00;;;15.32;;
6485;SDS011;3276;48.490;9.222;2024-03-08T02:28:10;23.43;;;15.03;;
6485;SDS011;3276;48.490;9.222;2024-03-08T02:30:37;29.05;;;15.50;;
6485;SDS011;3276;48.490;9.222;2024-03-08T02:33:03;24.13;;;15.40;;
6485;SDS011;3276;48.490;9.222;2024-03-08T02:35:32;20.98;;;13.45;;
6485;SDS011;3276;48.490;9.222;2024-03-08T02:37:59;23.92;;;14.93;;
6485;SDS011;3276;48.490;9.222;2024-03-08T02:40:25;20.73;;;14.80;;
6485;SDS011;3276;48.490;9.222;2024-03-08T02:42:50;22.70;;;14.20;;
6485;SDS011;3276;48.490;9.222;2024-03-08T02:45:16;24.93;;;15.53;;
6485;SDS011;3276;48.490;9.222;2024-03-08T02:47:42;21.10;;;14.43;;
6485;SDS011;3276;48.490;9.222;2024-03-08T02:50:07;25.13;;;16.30;;
6485;SDS011;3276;48.490;9.222;2024-03-08T02:52:33;22.57;;;15.70;;
6485;SDS011;3276;48.490;9.222;2024-03-08T02:55:00;24.55;;;16.10;;
6485;SDS011;3276;48.490;9.222;2024-03-08T02:57:26;26.40;;;15.48;;
6485;SDS011;3276;48.490;9.222;2024-03-08T02:59:53;30.23;;;17.77;;
6485;SDS011;3276;48.490;9.222;2024-03-08T03:02:18;23.85;;;15.73;;
6485;SDS011;3276;48.490;9.222;2024-03-08T03:04:44;27.70;;;15.33;;
6485;SDS011;3276;48.490;9.222;2024-03-08T03:07:10;28.23;;;17.00;;
6485;SDS011;3276;48.490;9.222;2024-03-08T03:09:36;26.75;;;15.60;;
6485;SDS011;3276;48.490;9.222;2024-03-08T03:12:01;24.33;;;16.13;;
6485;SDS011;3276;48.490;9.222;2024-03-08T03:14:27;23.87;;;16.50;;
6485;SDS011;3276;48.490;9.222;2024-03-08T03:16:53;24.33;;;16.10;;
6485;SDS011;3276;48.490;9.222;2024-03-08T03:19:19;29.07;;;16.27;;
6485;SDS011;3276;48.490;9.222;2024-03-08T03:21:45;30.33;;;18.63;;
6485;SDS011;3276;48.490;9.222;2024-03-08T03:24:11;23.90;;;14.93;;
6485;SDS011;3276;48.490;9.222;2024-03-08T03:26:37;22.70;;;15.37;;
6485;SDS011;3276;48.490;9.222;2024-03-08T03:29:06;27.38;;;16.80;;
6485;SDS011;3276;48.490;9.222;2024-03-08T03:31:33;25.75;;;17.50;;
6485;SDS011;3276;48.490;9.222;2024-03-08T03:33:59;28.50;;;19.30;;
6485;SDS011;3276;48.490;9.222;2024-03-08T03:36:29;23.45;;;18.20;;
6485;SDS011;3276;48.490;9.222;2024-03-08T03:38:55;34.78;;;17.40;;
6485;SDS011;3276;48.490;9.222;2024-03-08T03:41:35;26.73;;;16.75;;
6485;SDS011;3276;48.490;9.222;2024-03-08T03:44:00;23.20;;;17.23;;
6485;SDS011;3276;48.490;9.222;2024-03-08T03:46:26;21.30;;;15.43;;
6485;SDS011;3276;48.490;9.222;2024-03-08T03:48:52;27.23;;;18.05;;
6485;SDS011;3276;48.490;9.222;2024-03-08T03:51:18;31.52;;;16.40;;
6485;SDS011;3276;48.490;9.222;2024-03-08T03:53:45;26.88;;;18.10;;
6485;SDS011;3276;48.490;9.222;2024-03-08T03:56:10;23.17;;;16.10;;
6485;SDS011;3276;48.490;9.222;2024-03-08T03:58:36;26.40;;;18.00;;
6485;SDS011;3276;48.490;9.222;2024-03-08T04:01:04;25.43;;;17.77;;
6485;SDS011;3276;48.490;9.222;2024-03-08T04:03:30;28.27;;;16.95;;
6485;SDS011;3276;48.490;9.222;2024-03-08T04:05:55;28.07;;;17.03;;
6485;SDS011;3276;48.490;9.222;2024-03-08T04:08:21;33.03;;;20.30;;
6485;SDS011;3276;48.490;9.222;2024-03-08T04:10:46;31.23;;;18.07;;
6485;SDS011;3276;48.490;9.222;2024-03-08T04:13:12;22.70;;;15.38;;
6485;SDS011;3276;48.490;9.222;2024-03-08T04:15:38;27.77;;;18.23;;
6485;SDS011;3276;48.490;9.222;2024-03-08T04:18:04;32.27;;;16.90;;
6485;SDS011;3276;48.490;9.222;2024-03-08T04:20:29;25.33;;;16.43;;
6485;SDS011;3276;48.490;9.222;2024-03-08T04:22:55;28.23;;;19.47;;
6485;SDS011;3276;48.490;9.222;2024-03-08T04:25:21;35.23;;;18.50;;
6485;SDS011;3276;48.490;9.222;2024-03-08T04:27:47;21.60;;;14.67;;
6485;SDS011;3276;48.490;9.222;2024-03-08T04:30:14;29.25;;;18.83;;
6485;SDS011;3276;48.490;9.222;2024-03-08T04:32:40;28.63;;;17.40;;
6485;SDS011;3276;48.490;9.222;2024-03-08T04:35:06;26.15;;;17.52;;
6485;SDS011;3276;48.490;9.222;2024-03-08T04:37:33;29.60;;;18.08;;
6485;SDS011;3276;48.490;9.222;2024-03-08T04:39:59;28.27;;;17.50;;
6485;SDS011;3276;48.490;9.222;2024-03-08T04:42:25;26.57;;;17.30;;
6485;SDS011;3276;48.490;9.222;2024-03-08T04:44:54;32.63;;;20.02;;
6485;SDS011;3276;48.490;9.222;2024-03-08T04:47:20;28.40;;;18.00;;
6485;SDS011;3276;48.490;9.222;2024-03-08T04:49:46;25.20;;;16.83;;
6485;SDS011;3276;48.490;9.222;2024-03-08T04:52:11;27.40;;;15.90;;
6485;SDS011;3276;48.490;9.222;2024-03-08T04:54:37;24.13;;;16.33;;
6485;SDS011;3276;48.490;9.222;2024-03-08T04:57:02;24.13;;;15.30;;
6485;SDS011;3276;48.490;9.222;2024-03-08T04:59:29;25.65;;;17.30;;
6485;SDS011;3276;48.490;9.222;2024-03-08T05:01:56;28.08;;;17.23;;
6485;SDS011;3276;48.490;9.222;2024-03-08T05:04:21;28.13;;;15.93;;
6485;SDS011;3276;48.490;9.222;2024-03-08T05:06:47;25.10;;;14.30;;
6485;SDS011;3276;48.490;9.222;2024-03-08T05:09:13;32.60;;;15.07;;
6485;SDS011;3276;48.490;9.222;2024-03-08T05:11:40;23.67;;;15.50;;
6485;SDS011;3276;48.490;9.222;2024-03-08T05:14:06;26.23;;;15.90;;
6485;SDS011;3276;48.490;9.222;2024-03-08T05:16:32;23.13;;;16.57;;
6485;SDS011;3276;48.490;9.222;2024-03-08T05:18:57;24.47;;;14.90;;
6485;SDS011;3276;48.490;9.222;2024-03-08T05:21:23;31.47;;;17.57;;
6485;SDS011;3276;48.490;9.222;2024-03-08T05:23:49;28.90;;;18.10;;
6485;SDS011;3276;48.490;9.222;2024-03-08T05:26:15;24.25;;;16.05;;
6485;SDS011;3276;48.490;9.222;2024-03-08T05:28:41;28.93;;;16.57;;
6485;SDS011;3276;48.490;9.222;2024-03-08T05:31:07;24.23;;;16.40;;
6485;SDS011;3276;48.490;9.222;2024-03-08T05:33:33;24.48;;;16.42;;
6485;SDS011;3276;48.490;9.222;2024-03-08T05:35:59;20.65;;;14.18;;
6485;SDS011;3276;48.490;9.222;2024-03-08T05:38:28;22.45;;;14.18;;
6485;SDS011;3276;48.490;9.222;2024-03-08T05:40:54;24.90;;;15.93;;
6485;SDS011;3276;48.490;9.222;2024-03-08T05:43:20;25.60;;;16.10;;
6485;SDS011;3276;48.490;9.222;2024-03-08T05:45:45;23.27;;;14.27;;
6485;SDS011;3276;48.490;9.222;2024-03-08T05:48:11;22.70;;;13.82;;
6485;SDS011;3276;48.490;9.222;2024-03-08T05:50:38;22.50;;;15.85;;
6485;SDS011;3276;48.490;9.222;2024-03-08T05:53:04;27.53;;;16.47;;
6485;SDS011;3276;48.490;9.222;2024-03-08T05:55:32;23.40;;;16.00;;
6485;SDS011;3276;48.490;9.222;2024-03-08T05:58:01;23.83;;;15.15;;
6485;SDS011;3276;48.490;9.222;2024-03-08T06:00:27;27.70;;;16.63;;
6485;SDS011;3276;48.490;9.222;2024-03-08T06:02:53;26.27;;;14.43;;
6485;SDS011;3276;48.490;9.222;2024-03-08T06:05:18;25.03;;;14.70;;
6485;SDS011;3276;48.490;9.222;2024-03-08T06:07:44;26.53;;;16.53;;
6485;SDS011;3276;48.490;9.222;2024-03-08T06:10:10;21.37;;;15.13;;
6485;SDS011;3276;48.490;9.222;2024-03-08T06:12:39;28.98;;;17.65;;
6485;SDS011;3276;48.490;9.222;2024-03-08T06:15:06;23.55;;;16.88;;
6485;SDS011;3276;48.490;9.222;2024-03-08T06:17:33;22.58;;;15.50;;
6485;SDS011;3276;48.490;9.222;2024-03-08T06:19:59;30.13;;;17.13;;
6485;SDS011;3276;48.490;9.222;2024-03-08T06:22:25;24.37;;;13.67;;
6485;SDS011;3276;48.490;9.222;2024-03-08T06:24:50;24.33;;;15.00;;
6485;SDS011;3276;48.490;9.222;2024-03-08T06:27:16;24.60;;;15.87;;
6485;SDS011;3276;48.490;9.222;2024-03-08T06:29:42;25.70;;;16.50;;
6485;SDS011;3276;48.490;9.222;2024-03-08T06:32:08;25.50;;;16.23;;
6485;SDS011;3276;48.490;9.222;2024-03-08T06:34:33;22.10;;;14.70;;
6485;SDS011;3276;48.490;9.222;2024-03-08T06:37:01;21.40;;;15.18;;
6485;SDS011;3276;48.490;9.222;2024-03-08T06:39:27;22.77;;;14.80;;
6485;SDS011;3276;48.490;9.222;2024-03-08T06:41:56;24.35;;;14.75;;
6485;SDS011;3276;48.490;9.222;2024-03-08T06:44:22;27.30;;;14.93;;
6485;SDS011;3276;48.490;9.222;2024-03-08T06:46:47;23.27;;;14.47;;
6485;SDS011;3276;48.490;9.222;2024-03-08T06:49:13;22.00;;;14.77;;
6485;SDS011;3276;48.490;9.222;2024-03-08T06:51:40;25.45;;;13.52;;
6485;SDS011;3276;48.490;9.222;2024-03-08T06:54:06;22.27;;;15.03;;
6485;SDS011;3276;48.490;9.222;2024-03-08T06:56:33;22.48;;;12.25;;
6485;SDS011;3276;48.490;9.222;2024-03-08T06:59:02;19.27;;;13.15;;
6485;SDS011;3276;48.490;9.222;2024-03-08T07:01:29;19.30;;;14.00;;
6485;SDS011;3276;48.490;9.222;2024-03-08T07:03:59;19.75;;;12.10;;
6485;SDS011;3276;48.490;9.222;2024-03-08T07:06:27;19.88;;;13.27;;
6485;SDS011;3276;48.490;9.222;2024-03-08T07:08:53;21.08;;;14.93;;
6485;SDS011;3276;48.490;9.222;2024-03-08T07:11:19;20.37;;;14.00;;
6485;SDS011;3276;48.490;9.222;2024-03-08T07:13:45;21.80;;;14.27;;
6485;SDS011;3276;48.490;9.222;2024-03-08T07:16:10;18.70;;;12.90;;
6485;SDS011;3276;48.490;9.222;2024-03-08T07:18:37;24.55;;;15.00;;
6485;SDS011;3276;48.490;9.222;2024-03-08T07:21:08;23.03;;;14.43;;
6485;SDS011;3276;48.490;9.222;2024-03-08T07:23:36;25.08;;;14.18;;
6485;SDS011;3276;48.490;9.222;2024-03-08T07:26:14;21.05;;;14.30;;
6485;SDS011;3276;48.490;9.222;2024-03-08T07:28:41;22.98;;;15.85;;
6485;SDS011;3276;48.490;9.222;2024-03-08T07:31:07;20.20;;;12.97;;
6485;SDS011;3276;48.490;9.222;2024-03-08T07:33:50;20.37;;;14.20;;
6485;SDS011;3276;48.490;9.222;2024-03-08T07:36:18;19.48;;;12.77;;
6485;SDS011;3276;48.490;9.222;2024-03-08T07:38:44;17.30;;;11.17;;
6485;SDS011;3276;48.490;9.222;2024-03-08T07:41:11;21.23;;;13.90;;
6485;SDS011;3276;48.490;9.222;2024-03-08T07:43:37;24.67;;;14.77;;
6485;SDS011;3276;48.490;9.222;2024-03-08T07:46:03;23.63;;;12.97;;
6485;SDS011;3276;48.490;9.222;2024-03-08T07:48:29;27.57;;;14.43;;
6485;SDS011;3276;48.490;9.222;2024-03-08T07:50:56;21.08;;;14.15;;
6485;SDS011;3276;48.490;9.222;2024-03-08T07:53:21;17.73;;;12.70;;
6485;SDS011;3276;48.490;9.222;2024-03-08T07:55:49;20.50;;;14.35;;
6485;SDS011;3276;48.490;9.222;2024-03-08T07:58:15;23.13;;;13.90;;
6485;SDS011;3276;48.490;9.222;2024-03-08T08:00:40;23.37;;;14.93;;
6485;SDS011;3276;48.490;9.222;2024-03-08T08:03:07;15.87;;;12.83;;
6485;SDS011;3276;48.490;9.222;2024-03-08T08:05:33;21.50;;;14.27;;
6485;SDS011;3276;48.490;9.222;2024-03-08T08:08:01;20.52;;;14.63;;
6485;SDS011;3276;48.490;9.222;2024-03-08T08:10:31;19.15;;;11.63;;
6485;SDS011;3276;48.490;9.222;2024-03-08T08:12:57;19.70;;;13.40;;
6485;SDS011;3276;48.490;9.222;2024-03-08T08:15:23;19.83;;;13.30;;
6485;SDS011;3276;48.490;9.222;2024-03-08T08:17:49;16.90;;;12.03;;
6485;SDS011;3276;48.490;9.222;2024-03-08T08:20:17;17.63;;;13.03;;
6485;SDS011;3276;48.490;9.222;2024-03-08T08:22:43;21.00;;;12.90;;
6485;SDS011;3276;48.490;9.222;2024-03-08T08:25:12;16.37;;;12.30;;
6485;SDS011;3276;48.490;9.222;2024-03-08T08:27:38;16.60;;;12.27;;
6485;SDS011;3276;48.490;9.222;2024-03-08T08:30:05;16.80;;;12.63;;
6485;SDS011;3276;48.490;9.222;2024-03-08T08:32:33;19.70;;;12.73;;
6485;SDS011;3276;48.490;9.222;2024-03-08T08:34:59;16.00;;;11.90;;
6485;SDS011;3276;48.490;9.222;2024-03-08T08:37:25;17.23;;;12.00;;
6485;SDS011;3276;48.490;9.222;2024-03-08T08:39:51;20.67;;;11.93;;
6485;SDS011;3276;48.490;9.222;2024-03-08T08:42:17;18.83;;;13.37;;
6485;SDS011;3276;48.490;9.222;2024-03-08T08:44:43;18.17;;;11.33;;
6485;SDS011;3276;48.490;9.222;2024-03-08T08:47:08;19.40;;;12.80;;
6485;SDS011;3276;48.490;9.222;2024-03-08T08:49:34;16.77;;;11.80;;
6485;SDS011;3276;48.490;9.222;2024-03-08T08:52:00;16.13;;;11.53;;
6485;SDS011;3276;48.490;9.222;2024-03-08T08:54:28;16.03;;;12.77;;
6485;SDS011;3276;48.490;9.222;2024-03-08T08:56:53;21.40;;;13.13;;
6485;SDS011;3276;48.490;9.222;2024-03-08T08:59:19;18.30;;;12.97;;
6485;SDS011;3276;48.490;9.222;2024-03-08T09:01:45;18.13;;;13.70;;
6485;SDS011;3276;48.490;9.222;2024-03-08T09:04:12;18.03;;;11.20;;
6485;SDS011;3276;48.490;9.222;2024-03-08T09:06:37;17.80;;;11.60;;
6485;SDS011;3276;48.490;9.222;2024-03-08T09:09:06;15.43;;;10.67;;
6485;SDS011;3276;48.490;9.222;2024-03-08T09:11:34;15.67;;;12.60;;
6485;SDS011;3276;48.490;9.222;2024-03-08T09:14:00;17.27;;;11.20;;
6485;SDS011;3276;48.490;9.222;2024-03-08T09:16:27;16.30;;;11.70;;
6485;SDS011;3276;48.490;9.222;2024-03-08T09:18:52;20.10;;;14.00;;
6485;SDS011;3276;48.490;9.222;2024-03-08T09:21:18;18.90;;;11.67;;
6485;SDS011;3276;48.490;9.222;2024-03-08T09:23:43;19.87;;;12.87;;
6485;SDS011;3276;48.490;9.222;2024-03-08T09:26:09;15.10;;;11.00;;
6485;SDS011;3276;48.490;9.222;2024-03-08T09:28:37;13.90;;;10.43;;
6485;SDS011;3276;48.490;9.222;2024-03-08T09:31:03;17.50;;;12.13;;
6485;SDS011;3276;48.490;9.222;2024-03-08T09:33:30;17.87;;;12.87;;
6485;SDS011;3276;48.490;9.222;2024-03-08T09:35:56;19.07;;;13.87;;
6485;SDS011;3276;48.490;9.222;2024-03-08T09:38:24;15.03;;;12.93;;
6485;SDS011;3276;48.490;9.222;2024-03-08T09:40:51;16.47;;;11.40;;
6485;SDS011;3276;48.490;9.222;2024-03-08T09:43:18;16.40;;;12.40;;
6485;SDS011;3276;48.490;9.222;2024-03-08T09:45:43;18.53;;;12.30;;
6485;SDS011;3276;48.490;9.222;2024-03-08T09:48:14;18.07;;;12.93;;
6485;SDS011;3276;48.490;9.222;2024-03-08T09:50:42;20.50;;;12.83;;
6485;SDS011;3276;48.490;9.222;2024-03-08T09:53:07;16.47;;;11.37;;
6485;SDS011;3276;48.490;9.222;2024-03-08T09:55:35;15.40;;;10.53;;
6485;SDS011;3276;48.490;9.222;2024-03-08T09:58:02;17.93;;;10.20;;
6485;SDS011;3276;48.490;9.222;2024-03-08T10:00:49;14.60;;;10.67;;
6485;SDS011;3276;48.490;9.222;2024-03-08T10:03:15;15.80;;;10.60;;
6485;SDS011;3276;48.490;9.222;2024-03-08T10:05:41;16.80;;;12.40;;
6485;SDS011;3276;48.490;9.222;2024-03-08T10:08:07;16.77;;;12.07;;
6485;SDS011;3276;48.490;9.222;2024-03-08T10:10:33;18.60;;;13.13;;
6485;SDS011;3276;48.490;9.222;2024-03-08T10:12:59;18.77;;;10.43;;
6485;SDS011;3276;48.490;9.222;2024-03-08T10:15:28;11.90;;;9.47;;
6485;SDS011;3276;48.490;9.222;2024-03-08T10:17:55;16.10;;;10.17;;
6485;SDS011;3276;48.490;9.222;2024-03-08T10:20:21;16.63;;;10.63;;
6485;SDS011;3276;48.490;9.222;2024-03-08T10:22:48;14.80;;;11.67;;
6485;SDS011;3276;48.490;9.222;2024-03-08T10:25:14;13.30;;;9.20;;
6485;SDS011;3276;48.490;9.222;2024-03-08T10:27:40;15.37;;;10.10;;
6485;SDS011;3276;48.490;9.222;2024-03-08T10:30:08;13.33;;;10.57;;
6485;SDS011;3276;48.490;9.222;2024-03-08T10:32:37;13.10;;;10.57;;
6485;SDS011;3276;48.490;9.222;2024-03-08T10:35:04;17.90;;;12.50;;
6485;SDS011;3276;48.490;9.222;2024-03-08T10:37:32;18.20;;;11.20;;
6485;SDS011;3276;48.490;9.222;2024-03-08T10:40:03;18.00;;;11.57;;
6485;SDS011;3276;48.490;9.222;2024-03-08T10:42:37;16.97;;;11.90;;
6485;SDS011;3276;48.490;9.222;2024-03-08T10:50:53;20.10;;;11.23;;
6485;SDS011;3276;48.490;9.222;2024-03-08T10:53:19;17.80;;;11.80;;
6485;SDS011;3276;48.490;9.222;2024-03-08T10:55:46;20.23;;;10.40;;
6485;SDS011;3276;48.490;9.222;2024-03-08T10:58:12;16.30;;;10.37;;
6485;SDS011;3276;48.490;9.222;2024-03-08T11:00:38;18.33;;;10.90;;
6485;SDS011;3276;48.490;9.222;2024-03-08T11:03:06;15.50;;;11.03;;
6485;SDS011;3276;48.490;9.222;2024-03-08T11:08:02;19.50;;;12.00;;
6485;SDS011;3276;48.490;9.222;2024-03-08T11:10:29;17.00;;;12.37;;
6485;SDS011;3276;48.490;9.222;2024-03-08T11:12:54;14.20;;;10.87;;
6485;SDS011;3276;48.490;9.222;2024-03-08T11:15:20;17.47;;;11.43;;
6485;SDS011;3276;48.490;9.222;2024-03-08T11:17:49;17.00;;;12.30;;
6485;SDS011;3276;48.490;9.222;2024-03-08T11:20:18;19.23;;;12.63;;
6485;SDS011;3276;48.490;9.222;2024-03-08T11:23:03;14.20;;;10.50;;
6485;SDS011;3276;48.490;9.222;2024-03-08T11:25:36;19.67;;;10.77;;
6485;SDS011;3276;48.490;9.222;2024-03-08T11:28:17;16.73;;;11.27;;
6485;SDS011;3276;48.490;9.222;2024-03-08T11:33:23;16.03;;;11.33;;
6485;SDS011;3276;48.490;9.222;2024-03-08T11:38:43;18.20;;;12.10;;
6485;SDS011;3276;48.490;9.222;2024-03-08T11:41:15;27.33;;;12.43;;
6485;SDS011;3276;48.490;9.222;2024-03-08T11:43:48;20.50;;;11.00;;
6485;SDS011;3276;48.490;9.222;2024-03-08T11:46:15;15.83;;;11.70;;
6485;SDS011;3276;48.490;9.222;2024-03-08T11:48:42;16.80;;;12.00;;
6485;SDS011;3276;48.490;9.222;2024-03-08T11:51:10;19.37;;;12.60;;
6485;SDS011;3276;48.490;9.222;2024-03-08T11:53:37;16.17;;;11.77;;
6485;SDS011;3276;48.490;9.222;2024-03-08T11:56:12;19.23;;;13.03;;
6485;SDS011;3276;48.490;9.222;2024-03-08T11:58:38;14.90;;;10.50;;
6485;SDS011;3276;48.490;9.222;2024-03-08T12:01:08;18.90;;;12.10;;
6485;SDS011;3276;48.490;9.222;2024-03-08T12:03:38;19.53;;;12.57;;
6485;SDS011;3276;48.490;9.222;2024-03-08T12:06:07;17.37;;;12.33;;
6485;SDS011;3276;48.490;9.222;2024-03-08T12:08:34;18.23;;;11.73;;
6485;SDS011;3276;48.490;9.222;2024-03-08T12:11:00;15.60;;;10.97;;
6485;SDS011;3276;48.490;9.222;2024-03-08T12:13:26;15.17;;;11.50;;
6485;SDS011;3276;48.490;9.222;2024-03-08T12:15:56;16.37;;;11.40;;
6485;SDS011;3276;48.490;9.222;2024-03-08T12:18:26;20.70;;;12.00;;
6485;SDS011;3276;48.490;9.222;2024-03-08T12:21:03;16.70;;;10.97;;
6485;SDS011;3276;48.490;9.222;2024-03-08T12:23:36;17.87;;;12.90;;
6485;SDS011;3276;48.490;9.222;2024-03-08T12:26:16;15.77;;;10.87;;
6485;SDS011;3276;48.490;9.222;2024-03-08T12:28:43;13.83;;;10.90;;
6485;SDS011;3276;48.490;9.222;2024-03-08T12:31:13;17.73;;;11.43;;
6485;SDS011;3276;48.490;9.222;2024-03-08T12:33:48;15.87;;;11.03;;
6485;SDS011;3276;48.490;9.222;2024-03-08T12:36:14;18.53;;;11.33;;
6485;SDS011;3276;48.490;9.222;2024-03-08T12:38:44;19.23;;;13.73;;
6485;SDS011;3276;48.490;9.222;2024-03-08T12:41:16;10.67;;;9.47;;
6485;SDS011;3276;48.490;9.222;2024-03-08T12:43:43;16.57;;;13.70;;
6485;SDS011;3276;48.490;9.222;2024-03-08T12:46:14;14.77;;;10.83;;
6485;SDS011;3276;48.490;9.222;2024-03-08T12:48:40;17.40;;;13.17;;
6485;SDS011;3276;48.490;9.222;2024-03-08T12:51:08;18.30;;;14.80;;
6485;SDS011;3276;48.490;9.222;2024-03-08T12:53:34;21.23;;;13.97;;
6485;SDS011;3276;48.490;9.222;2024-03-08T12:55:59;16.30;;;13.03;;
6485;SDS011;3276;48.490;9.222;2024-03-08T12:58:25;17.43;;;13.40;;
6485;SDS011;3276;48.490;9.222;2024-03-08T13:00:51;12.77;;;9.80;;
6485;SDS011;3276;48.490;9.222;2024-03-08T13:03:17;20.53;;;14.33;;
6485;SDS011;3276;48.490;9.222;2024-03-08T13:05:42;18.27;;;13.00;;
6485;SDS011;3276;48.490;9.222;2024-03-08T13:08:08;16.80;;;12.53;;
6485;SDS011;3276;48.490;9.222;2024-03-08T13:10:41;15.33;;;11.07;;
6485;SDS011;3276;48.490;9.222;2024-03-08T13:13:08;13.77;;;11.30;;
6485;SDS011;3276;48.490;9.222;2024-03-08T13:15:34;14.73;;;10.80;;
6485;SDS011;3276;48.490;9.222;2024-03-08T13:18:00;15.60;;;11.13;;
6485;SDS011;3276;48.490;9.222;2024-03-08T13:20:26;19.27;;;13.33;;
6485;SDS011;3276;48.490;9.222;2024-03-08T13:22:53;15.80;;;11.93;;
6485;SDS011;3276;48.490;9.222;2024-03-08T13:25:19;11.20;;;9.60;;
6485;SDS011;3276;48.490;9.222;2024-03-08T13:27:45;14.43;;;11.27;;
6485;SDS011;3276;48.490;9.222;2024-03-08T13:30:11;17.77;;;11.10;;
6485;SDS011;3276;48.490;9.222;2024-03-08T13:32:38;14.10;;;11.03;;
6485;SDS011;3276;48.490;9.222;2024-03-08T13:35:05;10.90;;;9.47;;
6485;SDS011;3276;48.490;9.222;2024-03-08T13:37:37;12.30;;;10.40;;
6485;SDS011;3276;48.490;9.222;2024-03-08T13:40:06;14.73;;;11.67;;
6485;SDS011;3276;48.490;9.222;2024-03-08T13:42:36;14.83;;;11.13;;
6485;SDS011;3276;48.490;9.222;2024-03-08T13:45:05;12.50;;;10.50;;
6485;SDS011;3276;48.490;9.222;2024-03-08T13:47:33;17.90;;;11.47;;
6485;SDS011;3276;48.490;9.222;2024-03-08T13:49:59;13.90;;;10.40;;
6485;SDS011;3276;48.490;9.222;2024-03-08T13:52:25;16.53;;;11.20;;
6485;SDS011;3276;48.490;9.222;2024-03-08T13:54:54;13.27;;;11.30;;
6485;SDS011;3276;48.490;9.222;2024-03-08T13:57:19;12.43;;;10.00;;
6485;SDS011;3276;48.490;9.222;2024-03-08T13:59:45;15.90;;;11.73;;
6485;SDS011;3276;48.490;9.222;2024-03-08T14:02:11;13.83;;;10.80;;
6485;SDS011;3276;48.490;9.222;2024-03-08T14:04:38;18.53;;;11.17;;
6485;SDS011;3276;48.490;9.222;2024-03-08T14:07:06;13.70;;;10.87;;
6485;SDS011;3276;48.490;9.222;2024-03-08T14:09:33;14.67;;;11.03;;
6485;SDS011;3276;48.490;9.222;2024-03-08T14:12:02;12.20;;;9.83;;
6485;SDS011;3276;48.490;9.222;2024-03-08T14:14:32;16.07;;;10.60;;
6485;SDS011;3276;48.490;9.222;2024-03-08T14:17:00;12.50;;;9.67;;
6485;SDS011;3276;48.490;9.222;2024-03-08T14:19:27;13.60;;;11.27;;
6485;SDS011;3276;48.490;9.222;2024-03-08T14:21:53;14.20;;;10.70;;
6485;SDS011;3276;48.490;9.222;2024-03-08T14:24:18;17.37;;;11.47;;
6485;SDS011;3276;48.490;9.222;2024-03-08T14:26:45;16.00;;;12.80;;
6485;SDS011;3276;48.490;9.222;2024-03-08T14:29:13;15.57;;;12.17;;
6485;SDS011;3276;48.490;9.222;2024-03-08T14:31:39;14.30;;;10.27;;
6485;SDS011;3276;48.490;9.222;2024-03-08T14:34:06;18.90;;;11.27;;
6485;SDS011;3276;48.490;9.222;2024-03-08T14:36:32;17.00;;;10.67;;
6485;SDS011;3276;48.490;9.222;2024-03-08T14:38:58;16.50;;;9.83;;
6485;SDS011;3276;48.490;9.222;2024-03-08T14:41:23;12.23;;;10.03;;
6485;SDS011;3276;48.490;9.222;2024-03-08T14:43:49;12.83;;;10.37;;
6485;SDS011;3276;48.490;9.222;2024-03-08T14:46:15;14.37;;;10.50;;
6485;SDS011;3276;48.490;9.222;2024-03-08T14:48:51;14.10;;;10.47;;
6485;SDS011;3276;48.490;9.222;2024-03-08T14:51:20;15.00;;;10.40;;
6485;SDS011;3276;48.490;9.222;2024-03-08T14:53:47;12.20;;;9.80;;
6485;SDS011;3276;48.490;9.222;2024-03-08T14:56:14;13.43;;;10.57;;
6485;SDS011;3276;48.490;9.222;2024-03-08T14:58:44;13.93;;;11.30;;
6485;SDS011;3276;48.490;9.222;2024-03-08T15:01:11;12.73;;;10.50;;
6485;SDS011;3276;48.490;9.222;2024-03-08T15:03:39;14.10;;;10.33;;